Tropical Cyclones
[Index]
Main Index Home Page Stock Weather Photos Extreme Storms Discussion Storm News and Storm Chasing Reports Tropical Cyclones / Hurricanes / Typhoons Weather Data and Links Wild Fires / Bushfires Weather Observation Techniques Weather Picture Catalogue Tornado Pictures and Reports Stock Video Footage and DVDs for sale
Season 1964-1965 Tropical Cyclone 196516 Track Map
Season 1964-1965 Summaries: [BoM-AU] [JTWC-AU] [JTWC-SIO] [JTWC-SPAC] [JTWC-SH]
<<- Previous TC | JTWC 1964-1965 Season | Next TC ->>

click for intensity scale information  Lat/long Grid: Show Hide

 Date Labels: Show Hide

Joint Typhoon Warning Centre Cyclone Data

Name: 196516
Number: 553 / 6516

13 Jan 1965 00:00 UTC to 20 Jan 1965 18:00 UTC

    date/time    lat    long     hPa   cat  kts
1965-01-13 00   11.9   140.3                              
1965-01-13 06   11.9   140.7                              
1965-01-13 12   11.9   141.2                              
1965-01-13 18   11.9   141.7                              
1965-01-14 00   12.0   142.3                              
1965-01-14 06   12.1   143.0                              
1965-01-14 12   12.3   143.6                              
1965-01-14 18   12.7   144.2                              
1965-01-15 00   12.9   144.6                              
1965-01-15 06   13.2   144.9                              
1965-01-15 12   13.4   145.2                              
1965-01-15 18   13.6   145.5                              
1965-01-16 00   13.8   145.9                              
1965-01-16 06   14.0   146.3                              
1965-01-16 12   14.1   146.7                              
1965-01-16 18   14.2   147.0                              
1965-01-17 00   14.2   147.4                              
1965-01-17 06   14.1   147.8                              
1965-01-17 12   14.1   148.3                              
1965-01-17 18   14.0   148.7                              
1965-01-18 00   14.0   149.2                              
1965-01-18 06   14.0   149.7                              
1965-01-18 12   14.1   150.2                              
1965-01-18 18   14.3   150.6                              
1965-01-19 00   14.7   151.1                              
1965-01-19 06   15.1   151.5                              
1965-01-19 12   15.6   151.9                              
1965-01-19 18   16.0   152.3                              
1965-01-20 00   16.4   152.8                              
1965-01-20 06   16.9   153.5                              
1965-01-20 12   17.4   154.3                              
1965-01-20 18   17.6   155.1                              
Winds are 1-min average.

Tropical cyclone tracks developed by Michael Bath using data from the Joint Typhoon Warning Centre Best Tracks and Google Maps.


[Australian Severe Weather index] [Copyright Notice] [Email Contacts] [Search This Site] [Privacy Policy]
Document: tropical_cyclone_196516.htm Updated: 18 September 2016